sensor_id;sensor_type;location;lat;lon;timestamp;P1;durP1;ratioP1;P2;durP2;ratioP2
7829;SDS011;3960;51.86894000;5.39848000;2022-07-06T00:00:46;4.20;;;2.15;;
7829;SDS011;3960;51.86894000;5.39848000;2022-07-06T00:03:12;4.40;;;1.90;;
7829;SDS011;3960;51.86894000;5.39848000;2022-07-06T00:05:37;3.97;;;1.67;;
7829;SDS011;3960;51.86894000;5.39848000;2022-07-06T00:08:02;5.18;;;1.73;;
7829;SDS011;3960;51.86894000;5.39848000;2022-07-06T00:10:28;2.25;;;1.63;;
7829;SDS011;3960;51.86894000;5.39848000;2022-07-06T00:12:53;4.65;;;1.75;;
7829;SDS011;3960;51.86894000;5.39848000;2022-07-06T00:15:18;3.60;;;1.73;;
7829;SDS011;3960;51.86894000;5.39848000;2022-07-06T00:17:43;4.88;;;1.45;;
7829;SDS011;3960;51.86894000;5.39848000;2022-07-06T00:20:09;5.65;;;1.83;;
7829;SDS011;3960;51.86894000;5.39848000;2022-07-06T00:22:34;4.13;;;1.90;;
7829;SDS011;3960;51.86894000;5.39848000;2022-07-06T00:24:59;6.78;;;2.00;;
7829;SDS011;3960;51.86894000;5.39848000;2022-07-06T00:27:25;4.72;;;2.00;;
7829;SDS011;3960;51.86894000;5.39848000;2022-07-06T00:29:50;3.17;;;1.90;;
7829;SDS011;3960;51.86894000;5.39848000;2022-07-06T00:32:15;6.28;;;2.00;;
7829;SDS011;3960;51.86894000;5.39848000;2022-07-06T00:34:41;5.43;;;2.13;;
7829;SDS011;3960;51.86894000;5.39848000;2022-07-06T00:37:06;2.95;;;2.10;;
7829;SDS011;3960;51.86894000;5.39848000;2022-07-06T00:39:32;4.05;;;1.92;;
7829;SDS011;3960;51.86894000;5.39848000;2022-07-06T00:41:57;3.17;;;1.92;;
7829;SDS011;3960;51.86894000;5.39848000;2022-07-06T00:44:23;6.97;;;2.08;;
7829;SDS011;3960;51.86894000;5.39848000;2022-07-06T00:46:48;5.05;;;2.55;;
7829;SDS011;3960;51.86894000;5.39848000;2022-07-06T00:49:13;5.68;;;2.40;;
7829;SDS011;3960;51.86894000;5.39848000;2022-07-06T00:51:57;6.13;;;2.50;;
7829;SDS011;3960;51.86894000;5.39848000;2022-07-06T00:54:24;6.95;;;2.63;;
7829;SDS011;3960;51.86894000;5.39848000;2022-07-06T00:56:50;4.82;;;2.20;;
7829;SDS011;3960;51.86894000;5.39848000;2022-07-06T00:59:16;2.97;;;1.90;;
7829;SDS011;3960;51.86894000;5.39848000;2022-07-06T01:01:41;3.90;;;2.25;;
7829;SDS011;3960;51.86894000;5.39848000;2022-07-06T01:04:06;5.18;;;2.70;;
7829;SDS011;3960;51.86894000;5.39848000;2022-07-06T01:06:31;5.00;;;2.10;;
7829;SDS011;3960;51.86894000;5.39848000;2022-07-06T01:08:57;7.95;;;2.40;;
7829;SDS011;3960;51.86894000;5.39848000;2022-07-06T01:11:24;4.30;;;2.30;;
7829;SDS011;3960;51.86894000;5.39848000;2022-07-06T01:13:50;4.00;;;2.20;;
7829;SDS011;3960;51.86894000;5.39848000;2022-07-06T01:16:16;5.45;;;2.45;;
7829;SDS011;3960;51.86894000;5.39848000;2022-07-06T01:18:42;3.47;;;2.35;;
7829;SDS011;3960;51.86894000;5.39848000;2022-07-06T01:21:11;6.68;;;2.45;;
7829;SDS011;3960;51.86894000;5.39848000;2022-07-06T01:23:41;7.18;;;2.75;;
7829;SDS011;3960;51.86894000;5.39848000;2022-07-06T01:26:08;4.72;;;2.33;;
7829;SDS011;3960;51.86894000;5.39848000;2022-07-06T01:28:34;4.63;;;2.10;;
7829;SDS011;3960;51.86894000;5.39848000;2022-07-06T01:31:00;5.80;;;2.45;;
7829;SDS011;3960;51.86894000;5.39848000;2022-07-06T01:33:25;5.55;;;2.40;;
7829;SDS011;3960;51.86894000;5.39848000;2022-07-06T01:35:50;3.80;;;2.35;;
7829;SDS011;3960;51.86894000;5.39848000;2022-07-06T01:38:16;3.88;;;2.25;;
7829;SDS011;3960;51.86894000;5.39848000;2022-07-06T01:40:41;5.80;;;2.40;;
7829;SDS011;3960;51.86894000;5.39848000;2022-07-06T01:43:06;4.95;;;2.10;;
7829;SDS011;3960;51.86894000;5.39848000;2022-07-06T01:45:31;6.97;;;2.03;;
7829;SDS011;3960;51.86894000;5.39848000;2022-07-06T01:47:58;3.35;;;2.05;;
7829;SDS011;3960;51.86894000;5.39848000;2022-07-06T01:50:23;3.75;;;2.10;;
7829;SDS011;3960;51.86894000;5.39848000;2022-07-06T01:52:48;5.60;;;2.22;;
7829;SDS011;3960;51.86894000;5.39848000;2022-07-06T01:55:14;5.15;;;2.10;;
7829;SDS011;3960;51.86894000;5.39848000;2022-07-06T01:57:39;5.55;;;2.15;;
7829;SDS011;3960;51.86894000;5.39848000;2022-07-06T02:00:06;8.60;;;2.72;;
7829;SDS011;3960;51.86894000;5.39848000;2022-07-06T02:02:32;6.25;;;2.00;;
7829;SDS011;3960;51.86894000;5.39848000;2022-07-06T02:04:58;9.38;;;2.60;;
7829;SDS011;3960;51.86894000;5.39848000;2022-07-06T02:07:23;6.25;;;2.20;;
7829;SDS011;3960;51.86894000;5.39848000;2022-07-06T02:09:48;5.90;;;2.03;;
7829;SDS011;3960;51.86894000;5.39848000;2022-07-06T02:12:13;2.53;;;1.90;;
7829;SDS011;3960;51.86894000;5.39848000;2022-07-06T02:14:39;4.47;;;1.85;;
7829;SDS011;3960;51.86894000;5.39848000;2022-07-06T02:17:04;6.65;;;2.28;;
7829;SDS011;3960;51.86894000;5.39848000;2022-07-06T02:19:29;3.78;;;2.00;;
7829;SDS011;3960;51.86894000;5.39848000;2022-07-06T02:21:54;4.38;;;2.03;;
7829;SDS011;3960;51.86894000;5.39848000;2022-07-06T02:24:20;9.40;;;2.50;;
7829;SDS011;3960;51.86894000;5.39848000;2022-07-06T02:26:45;5.75;;;2.17;;
7829;SDS011;3960;51.86894000;5.39848000;2022-07-06T02:29:10;4.05;;;2.22;;
7829;SDS011;3960;51.86894000;5.39848000;2022-07-06T02:31:35;10.02;;;2.60;;
7829;SDS011;3960;51.86894000;5.39848000;2022-07-06T02:34:01;8.15;;;2.55;;
7829;SDS011;3960;51.86894000;5.39848000;2022-07-06T02:36:26;4.60;;;2.33;;
7829;SDS011;3960;51.86894000;5.39848000;2022-07-06T02:38:51;5.03;;;2.50;;
7829;SDS011;3960;51.86894000;5.39848000;2022-07-06T02:41:16;3.92;;;2.22;;
7829;SDS011;3960;51.86894000;5.39848000;2022-07-06T02:43:42;5.22;;;2.75;;
7829;SDS011;3960;51.86894000;5.39848000;2022-07-06T02:46:07;3.88;;;2.13;;
7829;SDS011;3960;51.86894000;5.39848000;2022-07-06T02:48:33;4.40;;;2.40;;
7829;SDS011;3960;51.86894000;5.39848000;2022-07-06T02:50:58;5.82;;;2.60;;
7829;SDS011;3960;51.86894000;5.39848000;2022-07-06T02:53:23;4.47;;;2.10;;
7829;SDS011;3960;51.86894000;5.39848000;2022-07-06T02:55:49;6.93;;;2.90;;
7829;SDS011;3960;51.86894000;5.39848000;2022-07-06T02:58:14;10.05;;;2.60;;
7829;SDS011;3960;51.86894000;5.39848000;2022-07-06T03:00:39;6.47;;;2.70;;
7829;SDS011;3960;51.86894000;5.39848000;2022-07-06T03:03:05;7.03;;;2.50;;
7829;SDS011;3960;51.86894000;5.39848000;2022-07-06T03:05:30;5.85;;;2.58;;
7829;SDS011;3960;51.86894000;5.39848000;2022-07-06T03:07:55;5.05;;;2.20;;
7829;SDS011;3960;51.86894000;5.39848000;2022-07-06T03:10:21;6.10;;;2.35;;
7829;SDS011;3960;51.86894000;5.39848000;2022-07-06T03:12:46;5.15;;;2.50;;
7829;SDS011;3960;51.86894000;5.39848000;2022-07-06T03:15:11;4.22;;;2.30;;
7829;SDS011;3960;51.86894000;5.39848000;2022-07-06T03:17:37;6.43;;;2.83;;
7829;SDS011;3960;51.86894000;5.39848000;2022-07-06T03:20:03;9.32;;;2.40;;
7829;SDS011;3960;51.86894000;5.39848000;2022-07-06T03:22:30;8.73;;;2.25;;
7829;SDS011;3960;51.86894000;5.39848000;2022-07-06T03:24:55;4.93;;;2.30;;
7829;SDS011;3960;51.86894000;5.39848000;2022-07-06T03:27:20;5.15;;;2.30;;
7829;SDS011;3960;51.86894000;5.39848000;2022-07-06T03:29:46;3.50;;;2.30;;
7829;SDS011;3960;51.86894000;5.39848000;2022-07-06T03:32:11;5.60;;;2.10;;
7829;SDS011;3960;51.86894000;5.39848000;2022-07-06T03:34:36;4.65;;;2.20;;
7829;SDS011;3960;51.86894000;5.39848000;2022-07-06T03:37:01;5.65;;;2.42;;
7829;SDS011;3960;51.86894000;5.39848000;2022-07-06T03:39:27;6.72;;;2.47;;
7829;SDS011;3960;51.86894000;5.39848000;2022-07-06T03:41:52;9.73;;;2.60;;
7829;SDS011;3960;51.86894000;5.39848000;2022-07-06T03:44:18;3.03;;;2.03;;
7829;SDS011;3960;51.86894000;5.39848000;2022-07-06T03:46:43;3.95;;;2.17;;
7829;SDS011;3960;51.86894000;5.39848000;2022-07-06T03:49:08;4.63;;;2.10;;
7829;SDS011;3960;51.86894000;5.39848000;2022-07-06T03:51:33;3.80;;;1.95;;
7829;SDS011;3960;51.86894000;5.39848000;2022-07-06T03:53:59;4.85;;;2.63;;
7829;SDS011;3960;51.86894000;5.39848000;2022-07-06T03:56:24;4.00;;;1.95;;
7829;SDS011;3960;51.86894000;5.39848000;2022-07-06T03:58:58;3.33;;;1.92;;
7829;SDS011;3960;51.86894000;5.39848000;2022-07-06T04:01:25;4.13;;;2.08;;
7829;SDS011;3960;51.86894000;5.39848000;2022-07-06T04:03:51;4.70;;;2.05;;
7829;SDS011;3960;51.86894000;5.39848000;2022-07-06T04:06:16;4.60;;;2.25;;
7829;SDS011;3960;51.86894000;5.39848000;2022-07-06T04:08:42;4.80;;;2.10;;
7829;SDS011;3960;51.86894000;5.39848000;2022-07-06T04:11:07;3.50;;;2.20;;
7829;SDS011;3960;51.86894000;5.39848000;2022-07-06T04:13:32;7.88;;;2.10;;
7829;SDS011;3960;51.86894000;5.39848000;2022-07-06T04:15:58;3.53;;;2.08;;
7829;SDS011;3960;51.86894000;5.39848000;2022-07-06T04:18:23;5.63;;;3.15;;
7829;SDS011;3960;51.86894000;5.39848000;2022-07-06T04:20:49;7.90;;;2.35;;
7829;SDS011;3960;51.86894000;5.39848000;2022-07-06T04:23:14;4.05;;;2.33;;
7829;SDS011;3960;51.86894000;5.39848000;2022-07-06T04:25:39;5.10;;;2.10;;
7829;SDS011;3960;51.86894000;5.39848000;2022-07-06T04:28:05;6.43;;;2.80;;
7829;SDS011;3960;51.86894000;5.39848000;2022-07-06T04:30:30;3.55;;;2.15;;
7829;SDS011;3960;51.86894000;5.39848000;2022-07-06T04:32:56;5.75;;;2.20;;
7829;SDS011;3960;51.86894000;5.39848000;2022-07-06T04:35:21;4.53;;;1.90;;
7829;SDS011;3960;51.86894000;5.39848000;2022-07-06T04:37:47;3.40;;;2.30;;
7829;SDS011;3960;51.86894000;5.39848000;2022-07-06T04:40:12;7.28;;;2.35;;
7829;SDS011;3960;51.86894000;5.39848000;2022-07-06T04:42:38;9.57;;;2.78;;
7829;SDS011;3960;51.86894000;5.39848000;2022-07-06T04:45:04;5.03;;;2.30;;
7829;SDS011;3960;51.86894000;5.39848000;2022-07-06T04:47:30;9.25;;;3.17;;
7829;SDS011;3960;51.86894000;5.39848000;2022-07-06T04:49:55;7.45;;;2.53;;
7829;SDS011;3960;51.86894000;5.39848000;2022-07-06T04:52:20;3.00;;;2.28;;
7829;SDS011;3960;51.86894000;5.39848000;2022-07-06T04:54:46;4.30;;;2.22;;
7829;SDS011;3960;51.86894000;5.39848000;2022-07-06T04:57:11;3.05;;;2.35;;
7829;SDS011;3960;51.86894000;5.39848000;2022-07-06T04:59:36;5.97;;;2.65;;
7829;SDS011;3960;51.86894000;5.39848000;2022-07-06T05:02:01;5.82;;;2.30;;
7829;SDS011;3960;51.86894000;5.39848000;2022-07-06T05:04:27;6.72;;;2.15;;
7829;SDS011;3960;51.86894000;5.39848000;2022-07-06T05:06:52;9.60;;;2.60;;
7829;SDS011;3960;51.86894000;5.39848000;2022-07-06T05:09:17;5.30;;;2.80;;
7829;SDS011;3960;51.86894000;5.39848000;2022-07-06T05:11:43;5.50;;;2.70;;
7829;SDS011;3960;51.86894000;5.39848000;2022-07-06T05:14:09;4.75;;;2.45;;
7829;SDS011;3960;51.86894000;5.39848000;2022-07-06T05:16:35;4.63;;;2.22;;
7829;SDS011;3960;51.86894000;5.39848000;2022-07-06T05:19:00;5.60;;;2.28;;
7829;SDS011;3960;51.86894000;5.39848000;2022-07-06T05:21:25;8.60;;;1.90;;
7829;SDS011;3960;51.86894000;5.39848000;2022-07-06T05:23:51;6.50;;;1.90;;
7829;SDS011;3960;51.86894000;5.39848000;2022-07-06T05:26:16;2.63;;;1.83;;
7829;SDS011;3960;51.86894000;5.39848000;2022-07-06T05:28:42;2.30;;;1.70;;
7829;SDS011;3960;51.86894000;5.39848000;2022-07-06T05:31:07;3.60;;;1.95;;
7829;SDS011;3960;51.86894000;5.39848000;2022-07-06T05:33:32;5.07;;;1.63;;
7829;SDS011;3960;51.86894000;5.39848000;2022-07-06T05:35:58;5.32;;;1.42;;
7829;SDS011;3960;51.86894000;5.39848000;2022-07-06T05:38:23;2.95;;;1.40;;
7829;SDS011;3960;51.86894000;5.39848000;2022-07-06T05:40:49;3.03;;;1.50;;
7829;SDS011;3960;51.86894000;5.39848000;2022-07-06T05:43:14;2.40;;;1.35;;
7829;SDS011;3960;51.86894000;5.39848000;2022-07-06T05:45:40;1.83;;;1.20;;
7829;SDS011;3960;51.86894000;5.39848000;2022-07-06T05:48:05;2.10;;;1.00;;
7829;SDS011;3960;51.86894000;5.39848000;2022-07-06T05:50:49;7.03;;;1.70;;
7829;SDS011;3960;51.86894000;5.39848000;2022-07-06T05:53:14;3.33;;;1.20;;
7829;SDS011;3960;51.86894000;5.39848000;2022-07-06T05:55:40;2.00;;;1.17;;
7829;SDS011;3960;51.86894000;5.39848000;2022-07-06T05:58:05;1.95;;;1.13;;
7829;SDS011;3960;51.86894000;5.39848000;2022-07-06T06:00:31;3.75;;;1.30;;
7829;SDS011;3960;51.86894000;5.39848000;2022-07-06T06:02:56;2.78;;;1.10;;
7829;SDS011;3960;51.86894000;5.39848000;2022-07-06T06:05:23;2.58;;;0.98;;
7829;SDS011;3960;51.86894000;5.39848000;2022-07-06T06:07:48;2.15;;;1.05;;
7829;SDS011;3960;51.86894000;5.39848000;2022-07-06T06:10:16;3.22;;;1.33;;
7829;SDS011;3960;51.86894000;5.39848000;2022-07-06T06:12:42;4.70;;;1.10;;
7829;SDS011;3960;51.86894000;5.39848000;2022-07-06T06:15:08;2.28;;;1.17;;
7829;SDS011;3960;51.86894000;5.39848000;2022-07-06T06:17:35;2.85;;;1.00;;
7829;SDS011;3960;51.86894000;5.39848000;2022-07-06T06:20:00;0.75;;;0.73;;
7829;SDS011;3960;51.86894000;5.39848000;2022-07-06T06:22:26;2.38;;;0.95;;
7829;SDS011;3960;51.86894000;5.39848000;2022-07-06T06:24:51;3.05;;;0.80;;
7829;SDS011;3960;51.86894000;5.39848000;2022-07-06T06:27:17;1.77;;;0.52;;
7829;SDS011;3960;51.86894000;5.39848000;2022-07-06T06:29:42;1.85;;;1.13;;
7829;SDS011;3960;51.86894000;5.39848000;2022-07-06T06:32:09;1.42;;;1.20;;
7829;SDS011;3960;51.86894000;5.39848000;2022-07-06T06:34:35;3.85;;;0.93;;
7829;SDS011;3960;51.86894000;5.39848000;2022-07-06T06:37:01;2.80;;;0.95;;
7829;SDS011;3960;51.86894000;5.39848000;2022-07-06T06:39:26;3.05;;;0.73;;
7829;SDS011;3960;51.86894000;5.39848000;2022-07-06T06:41:52;4.45;;;0.80;;
7829;SDS011;3960;51.86894000;5.39848000;2022-07-06T06:44:17;2.22;;;1.00;;
7829;SDS011;3960;51.86894000;5.39848000;2022-07-06T06:46:42;2.50;;;1.00;;
7829;SDS011;3960;51.86894000;5.39848000;2022-07-06T06:49:09;2.33;;;0.80;;
7829;SDS011;3960;51.86894000;5.39848000;2022-07-06T06:51:34;1.77;;;0.90;;
7829;SDS011;3960;51.86894000;5.39848000;2022-07-06T06:54:00;2.70;;;1.00;;
7829;SDS011;3960;51.86894000;5.39848000;2022-07-06T06:56:25;2.72;;;0.90;;
7829;SDS011;3960;51.86894000;5.39848000;2022-07-06T06:58:50;5.70;;;0.98;;
7829;SDS011;3960;51.86894000;5.39848000;2022-07-06T07:01:15;2.50;;;0.95;;
7829;SDS011;3960;51.86894000;5.39848000;2022-07-06T07:03:41;5.40;;;1.25;;
7829;SDS011;3960;51.86894000;5.39848000;2022-07-06T07:06:06;5.22;;;0.73;;
7829;SDS011;3960;51.86894000;5.39848000;2022-07-06T07:08:31;4.35;;;1.08;;
7829;SDS011;3960;51.86894000;5.39848000;2022-07-06T07:10:57;4.20;;;1.27;;
7829;SDS011;3960;51.86894000;5.39848000;2022-07-06T07:13:22;2.20;;;0.85;;
7829;SDS011;3960;51.86894000;5.39848000;2022-07-06T07:15:48;3.80;;;0.90;;
7829;SDS011;3960;51.86894000;5.39848000;2022-07-06T07:18:13;3.45;;;0.80;;
7829;SDS011;3960;51.86894000;5.39848000;2022-07-06T07:20:38;2.42;;;0.88;;
7829;SDS011;3960;51.86894000;5.39848000;2022-07-06T07:23:03;5.05;;;1.33;;
7829;SDS011;3960;51.86894000;5.39848000;2022-07-06T07:25:28;4.32;;;0.80;;
7829;SDS011;3960;51.86894000;5.39848000;2022-07-06T07:27:54;3.97;;;1.20;;
7829;SDS011;3960;51.86894000;5.39848000;2022-07-06T07:30:19;2.03;;;0.73;;
7829;SDS011;3960;51.86894000;5.39848000;2022-07-06T07:32:46;3.13;;;1.30;;
7829;SDS011;3960;51.86894000;5.39848000;2022-07-06T07:35:11;6.70;;;1.50;;
7829;SDS011;3960;51.86894000;5.39848000;2022-07-06T07:37:36;4.78;;;1.23;;
7829;SDS011;3960;51.86894000;5.39848000;2022-07-06T07:40:02;4.72;;;1.02;;
7829;SDS011;3960;51.86894000;5.39848000;2022-07-06T07:42:29;4.20;;;1.08;;
7829;SDS011;3960;51.86894000;5.39848000;2022-07-06T07:44:54;5.68;;;1.20;;
7829;SDS011;3960;51.86894000;5.39848000;2022-07-06T07:47:19;5.22;;;0.98;;
7829;SDS011;3960;51.86894000;5.39848000;2022-07-06T07:49:45;3.83;;;1.35;;
7829;SDS011;3960;51.86894000;5.39848000;2022-07-06T07:52:10;2.97;;;1.13;;
7829;SDS011;3960;51.86894000;5.39848000;2022-07-06T07:54:36;3.38;;;1.10;;
7829;SDS011;3960;51.86894000;5.39848000;2022-07-06T07:57:01;2.30;;;0.82;;
7829;SDS011;3960;51.86894000;5.39848000;2022-07-06T07:59:27;2.70;;;0.90;;
7829;SDS011;3960;51.86894000;5.39848000;2022-07-06T08:01:53;6.00;;;1.20;;
7829;SDS011;3960;51.86894000;5.39848000;2022-07-06T08:04:18;3.30;;;1.02;;
7829;SDS011;3960;51.86894000;5.39848000;2022-07-06T08:06:43;1.98;;;0.82;;
7829;SDS011;3960;51.86894000;5.39848000;2022-07-06T08:09:09;2.35;;;0.93;;
7829;SDS011;3960;51.86894000;5.39848000;2022-07-06T08:11:34;6.70;;;0.93;;
7829;SDS011;3960;51.86894000;5.39848000;2022-07-06T08:14:00;4.93;;;1.17;;
7829;SDS011;3960;51.86894000;5.39848000;2022-07-06T08:16:25;2.80;;;1.00;;
7829;SDS011;3960;51.86894000;5.39848000;2022-07-06T08:18:50;2.47;;;0.88;;
7829;SDS011;3960;51.86894000;5.39848000;2022-07-06T08:21:16;3.78;;;0.90;;
7829;SDS011;3960;51.86894000;5.39848000;2022-07-06T08:23:41;3.60;;;0.80;;
7829;SDS011;3960;51.86894000;5.39848000;2022-07-06T08:26:07;1.90;;;0.90;;
7829;SDS011;3960;51.86894000;5.39848000;2022-07-06T08:28:32;2.05;;;0.98;;
7829;SDS011;3960;51.86894000;5.39848000;2022-07-06T08:30:57;3.47;;;0.98;;
7829;SDS011;3960;51.86894000;5.39848000;2022-07-06T08:33:23;1.98;;;0.77;;
7829;SDS011;3960;51.86894000;5.39848000;2022-07-06T08:35:48;1.75;;;1.13;;
7829;SDS011;3960;51.86894000;5.39848000;2022-07-06T08:38:13;1.95;;;0.75;;
7829;SDS011;3960;51.86894000;5.39848000;2022-07-06T08:40:39;4.75;;;1.15;;
7829;SDS011;3960;51.86894000;5.39848000;2022-07-06T08:43:05;6.15;;;0.80;;
7829;SDS011;3960;51.86894000;5.39848000;2022-07-06T08:45:31;3.67;;;0.70;;
7829;SDS011;3960;51.86894000;5.39848000;2022-07-06T08:48:03;2.45;;;0.90;;
7829;SDS011;3960;51.86894000;5.39848000;2022-07-06T08:50:30;3.80;;;0.98;;
7829;SDS011;3960;51.86894000;5.39848000;2022-07-06T08:52:57;1.88;;;0.80;;
7829;SDS011;3960;51.86894000;5.39848000;2022-07-06T08:55:22;1.23;;;0.32;;
7829;SDS011;3960;51.86894000;5.39848000;2022-07-06T08:57:49;2.63;;;0.80;;
7829;SDS011;3960;51.86894000;5.39848000;2022-07-06T09:00:15;2.35;;;0.77;;
7829;SDS011;3960;51.86894000;5.39848000;2022-07-06T09:02:41;2.90;;;0.95;;
7829;SDS011;3960;51.86894000;5.39848000;2022-07-06T09:05:06;2.75;;;0.80;;
7829;SDS011;3960;51.86894000;5.39848000;2022-07-06T09:07:34;3.55;;;0.95;;
7829;SDS011;3960;51.86894000;5.39848000;2022-07-06T09:09:59;1.95;;;0.57;;
7829;SDS011;3960;51.86894000;5.39848000;2022-07-06T09:12:26;1.40;;;0.43;;
7829;SDS011;3960;51.86894000;5.39848000;2022-07-06T09:14:55;2.05;;;0.50;;
7829;SDS011;3960;51.86894000;5.39848000;2022-07-06T09:17:24;6.50;;;0.70;;
7829;SDS011;3960;51.86894000;5.39848000;2022-07-06T09:19:52;3.40;;;0.60;;
7829;SDS011;3960;51.86894000;5.39848000;2022-07-06T09:22:27;3.70;;;0.80;;
7829;SDS011;3960;51.86894000;5.39848000;2022-07-06T09:25:05;1.27;;;0.52;;
7829;SDS011;3960;51.86894000;5.39848000;2022-07-06T09:27:44;2.50;;;0.60;;
7829;SDS011;3960;51.86894000;5.39848000;2022-07-06T09:30:15;3.35;;;0.68;;
7829;SDS011;3960;51.86894000;5.39848000;2022-07-06T09:32:43;3.75;;;0.73;;
7829;SDS011;3960;51.86894000;5.39848000;2022-07-06T09:37:45;3.15;;;0.98;;
7829;SDS011;3960;51.86894000;5.39848000;2022-07-06T09:40:16;1.92;;;0.57;;
7829;SDS011;3960;51.86894000;5.39848000;2022-07-06T09:42:43;1.67;;;0.50;;
7829;SDS011;3960;51.86894000;5.39848000;2022-07-06T09:45:08;0.95;;;0.50;;
7829;SDS011;3960;51.86894000;5.39848000;2022-07-06T09:47:34;2.05;;;0.63;;
7829;SDS011;3960;51.86894000;5.39848000;2022-07-06T09:49:59;4.18;;;0.50;;
7829;SDS011;3960;51.86894000;5.39848000;2022-07-06T09:52:25;1.30;;;0.65;;
7829;SDS011;3960;51.86894000;5.39848000;2022-07-06T09:54:50;1.63;;;0.70;;
7829;SDS011;3960;51.86894000;5.39848000;2022-07-06T09:57:16;2.30;;;0.60;;
7829;SDS011;3960;51.86894000;5.39848000;2022-07-06T09:59:41;3.33;;;0.70;;
7829;SDS011;3960;51.86894000;5.39848000;2022-07-06T10:02:07;0.98;;;0.63;;
7829;SDS011;3960;51.86894000;5.39848000;2022-07-06T10:04:33;3.25;;;0.90;;
7829;SDS011;3960;51.86894000;5.39848000;2022-07-06T10:06:59;3.50;;;0.85;;
7829;SDS011;3960;51.86894000;5.39848000;2022-07-06T10:09:25;1.80;;;0.57;;
7829;SDS011;3960;51.86894000;5.39848000;2022-07-06T10:14:25;1.67;;;0.60;;
7829;SDS011;3960;51.86894000;5.39848000;2022-07-06T10:16:53;6.10;;;1.00;;
7829;SDS011;3960;51.86894000;5.39848000;2022-07-06T10:19:20;1.70;;;0.85;;
7829;SDS011;3960;51.86894000;5.39848000;2022-07-06T10:21:46;2.35;;;0.85;;
7829;SDS011;3960;51.86894000;5.39848000;2022-07-06T10:24:12;0.60;;;0.52;;
7829;SDS011;3960;51.86894000;5.39848000;2022-07-06T10:26:38;6.07;;;0.80;;
7829;SDS011;3960;51.86894000;5.39848000;2022-07-06T10:29:05;0.95;;;0.60;;
7829;SDS011;3960;51.86894000;5.39848000;2022-07-06T10:31:31;0.57;;;0.47;;
7829;SDS011;3960;51.86894000;5.39848000;2022-07-06T10:33:59;1.08;;;0.60;;
7829;SDS011;3960;51.86894000;5.39848000;2022-07-06T10:36:26;1.35;;;0.50;;
7829;SDS011;3960;51.86894000;5.39848000;2022-07-06T10:38:52;1.80;;;0.55;;
7829;SDS011;3960;51.86894000;5.39848000;2022-07-06T10:41:18;1.45;;;0.73;;
7829;SDS011;3960;51.86894000;5.39848000;2022-07-06T10:43:55;1.08;;;0.63;;
7829;SDS011;3960;51.86894000;5.39848000;2022-07-06T10:46:23;4.75;;;0.73;;
7829;SDS011;3960;51.86894000;5.39848000;2022-07-06T10:48:49;2.05;;;0.50;;
7829;SDS011;3960;51.86894000;5.39848000;2022-07-06T10:51:23;1.90;;;0.63;;
7829;SDS011;3960;51.86894000;5.39848000;2022-07-06T10:53:56;2.80;;;0.82;;
7829;SDS011;3960;51.86894000;5.39848000;2022-07-06T10:56:32;1.65;;;0.73;;
7829;SDS011;3960;51.86894000;5.39848000;2022-07-06T10:59:02;1.73;;;0.85;;
7829;SDS011;3960;51.86894000;5.39848000;2022-07-06T11:01:28;2.38;;;0.80;;
7829;SDS011;3960;51.86894000;5.39848000;2022-07-06T11:06:23;1.33;;;0.57;;
7829;SDS011;3960;51.86894000;5.39848000;2022-07-06T11:14:00;1.05;;;0.63;;
7829;SDS011;3960;51.86894000;5.39848000;2022-07-06T11:16:29;1.80;;;0.65;;
7829;SDS011;3960;51.86894000;5.39848000;2022-07-06T11:21:37;1.65;;;0.70;;
7829;SDS011;3960;51.86894000;5.39848000;2022-07-06T11:24:09;2.95;;;0.77;;
7829;SDS011;3960;51.86894000;5.39848000;2022-07-06T11:26:37;1.27;;;0.70;;
7829;SDS011;3960;51.86894000;5.39848000;2022-07-06T11:29:03;1.98;;;0.68;;
7829;SDS011;3960;51.86894000;5.39848000;2022-07-06T11:31:32;0.60;;;0.47;;
7829;SDS011;3960;51.86894000;5.39848000;2022-07-06T11:33:59;5.53;;;0.93;;
7829;SDS011;3960;51.86894000;5.39848000;2022-07-06T11:36:25;1.83;;;0.82;;
7829;SDS011;3960;51.86894000;5.39848000;2022-07-06T11:38:50;1.73;;;0.52;;
7829;SDS011;3960;51.86894000;5.39848000;2022-07-06T11:41:15;1.42;;;0.50;;
7829;SDS011;3960;51.86894000;5.39848000;2022-07-06T11:43:46;1.42;;;0.70;;
7829;SDS011;3960;51.86894000;5.39848000;2022-07-06T11:48:51;1.70;;;0.80;;
7829;SDS011;3960;51.86894000;5.39848000;2022-07-06T11:51:18;2.60;;;0.50;;
7829;SDS011;3960;51.86894000;5.39848000;2022-07-06T11:53:44;1.17;;;0.77;;
7829;SDS011;3960;51.86894000;5.39848000;2022-07-06T11:56:11;4.28;;;0.65;;
7829;SDS011;3960;51.86894000;5.39848000;2022-07-06T11:58:36;2.42;;;0.77;;
7829;SDS011;3960;51.86894000;5.39848000;2022-07-06T12:01:07;3.90;;;0.90;;
7829;SDS011;3960;51.86894000;5.39848000;2022-07-06T12:03:34;3.83;;;0.98;;
7829;SDS011;3960;51.86894000;5.39848000;2022-07-06T12:06:01;2.30;;;0.98;;
7829;SDS011;3960;51.86894000;5.39848000;2022-07-06T12:08:27;1.80;;;0.68;;
7829;SDS011;3960;51.86894000;5.39848000;2022-07-06T12:10:53;1.25;;;0.55;;
7829;SDS011;3960;51.86894000;5.39848000;2022-07-06T12:13:19;2.25;;;0.70;;
7829;SDS011;3960;51.86894000;5.39848000;2022-07-06T12:15:44;3.08;;;0.85;;
7829;SDS011;3960;51.86894000;5.39848000;2022-07-06T12:18:09;4.45;;;0.68;;
7829;SDS011;3960;51.86894000;5.39848000;2022-07-06T12:20:35;1.80;;;0.70;;
7829;SDS011;3960;51.86894000;5.39848000;2022-07-06T12:23:04;2.60;;;0.80;;
7829;SDS011;3960;51.86894000;5.39848000;2022-07-06T12:25:36;2.03;;;0.75;;
7829;SDS011;3960;51.86894000;5.39848000;2022-07-06T12:28:02;1.45;;;0.80;;
7829;SDS011;3960;51.86894000;5.39848000;2022-07-06T12:30:27;3.08;;;0.95;;
7829;SDS011;3960;51.86894000;5.39848000;2022-07-06T12:35:41;2.22;;;0.82;;
7829;SDS011;3960;51.86894000;5.39848000;2022-07-06T12:38:07;1.10;;;0.52;;
7829;SDS011;3960;51.86894000;5.39848000;2022-07-06T12:40:35;2.05;;;1.00;;
7829;SDS011;3960;51.86894000;5.39848000;2022-07-06T12:43:01;2.70;;;0.82;;
7829;SDS011;3960;51.86894000;5.39848000;2022-07-06T12:45:27;1.83;;;0.90;;
7829;SDS011;3960;51.86894000;5.39848000;2022-07-06T12:47:59;1.05;;;0.75;;
7829;SDS011;3960;51.86894000;5.39848000;2022-07-06T12:50:36;2.30;;;1.00;;
7829;SDS011;3960;51.86894000;5.39848000;2022-07-06T12:53:03;2.67;;;0.80;;
7829;SDS011;3960;51.86894000;5.39848000;2022-07-06T12:55:30;1.67;;;0.60;;
7829;SDS011;3960;51.86894000;5.39848000;2022-07-06T12:57:56;5.57;;;0.75;;
7829;SDS011;3960;51.86894000;5.39848000;2022-07-06T13:00:23;1.15;;;0.70;;
7829;SDS011;3960;51.86894000;5.39848000;2022-07-06T13:02:49;1.35;;;0.70;;
7829;SDS011;3960;51.86894000;5.39848000;2022-07-06T13:05:25;1.67;;;0.80;;
7829;SDS011;3960;51.86894000;5.39848000;2022-07-06T13:07:54;2.42;;;1.05;;
7829;SDS011;3960;51.86894000;5.39848000;2022-07-06T13:10:21;2.40;;;0.90;;
7829;SDS011;3960;51.86894000;5.39848000;2022-07-06T13:12:47;4.00;;;0.90;;
7829;SDS011;3960;51.86894000;5.39848000;2022-07-06T13:15:13;1.45;;;0.57;;
7829;SDS011;3960;51.86894000;5.39848000;2022-07-06T13:17:39;2.20;;;0.70;;
7829;SDS011;3960;51.86894000;5.39848000;2022-07-06T13:20:08;1.35;;;0.73;;
7829;SDS011;3960;51.86894000;5.39848000;2022-07-06T13:22:34;3.03;;;1.02;;
7829;SDS011;3960;51.86894000;5.39848000;2022-07-06T13:25:00;2.38;;;1.00;;
7829;SDS011;3960;51.86894000;5.39848000;2022-07-06T13:27:25;3.10;;;0.93;;